Time;durP1;ratioP1;P1;durP2;ratioP2;P2;SDS_P1;SDS_P2;PMS_P1;PMS_P2;Temp;Humidity;BMP_temperature;BMP_pressure;BME280_temperature;BME280_humidity;BME280_pressure;Samples;Min_cycle;Max_cycle;Signal;HPM_P1;HPM_P2
2022/05/01 00:00:47;;;;;;;;;;;4.90;99.90;;;;;;5116610;28;20313;-59
2022/05/01 00:03:30;;;;;;;;;;;4.90;99.90;;;;;;5115408;28;19931;-60
2022/05/01 00:05:57;;;;;;;;;;;4.80;99.90;;;;;;5116409;28;19924;-60
2022/05/01 00:08:23;;;;;;;;;;;4.80;99.90;;;;;;5116408;28;20447;-59
2022/05/01 00:10:49;;;;;;;;;;;4.80;99.90;;;;;;5115487;28;19931;-59
2022/05/01 00:13:15;;;;;;;;;;;4.80;99.90;;;;;;5097095;28;19924;-60
2022/05/01 00:15:41;;;;;;;;;;;4.80;99.90;;;;;;5116278;28;19927;-60
2022/05/01 00:18:07;;;;;;;;;;;4.80;99.90;;;;;;5115769;28;19969;-60
2022/05/01 00:20:33;;;;;;;;;;;4.80;99.90;;;;;;5115621;28;19924;-59
2022/05/01 00:22:59;;;;;;;;;;;4.80;99.90;;;;;;5116491;28;19980;-59
2022/05/01 00:25:25;;;;;;;;;;;4.80;99.90;;;;;;5115661;28;19931;-60
2022/05/01 00:27:51;;;;;;;;;;;5.10;99.90;;;;;;5116135;28;19923;-60
2022/05/01 00:30:16;;;;;;;;;;;4.70;99.90;;;;;;5115756;28;19930;-60
2022/05/01 00:38:10;;;;;;;;;;;4.60;99.90;;;;;;5115084;28;19924;-59
2022/05/01 00:40:36;;;;;;;;;;;4.60;99.90;;;;;;5115817;28;19924;-59
2022/05/01 00:43:03;;;;;;;;;;;4.70;99.90;;;;;;5115691;28;20014;-59
2022/05/01 00:45:29;;;;;;;;;;;4.60;99.90;;;;;;5115353;28;19928;-60
2022/05/01 00:47:55;;;;;;;;;;;4.70;99.90;;;;;;5097509;28;19924;-60
2022/05/01 00:50:21;;;;;;;;;;;4.70;99.90;;;;;;5115145;28;20344;-59
2022/05/01 00:52:46;;;;;;;;;;;4.70;99.90;;;;;;5114901;28;20361;-59
2022/05/01 00:55:12;;;;;;;;;;;4.80;99.90;;;;;;5097263;28;20008;-59
2022/05/01 00:57:38;;;;;;;;;;;4.60;99.90;;;;;;5115211;28;19927;-59
2022/05/01 01:00:04;;;;;;;;;;;4.60;99.90;;;;;;5115070;28;19931;-59
2022/05/01 01:02:31;;;;;;;;;;;4.50;99.90;;;;;;5115515;28;20396;-59
2022/05/01 01:04:57;;;;;;;;;;;4.50;99.90;;;;;;5114176;28;19975;-60
2022/05/01 01:07:26;;;;;;;;;;;4.50;99.90;;;;;;5096463;28;19931;-60
2022/05/01 01:09:52;;;;;;;;;;;4.40;99.90;;;;;;5114933;28;20005;-59
2022/05/01 01:15:09;;;;;;;;;;;4.40;99.90;;;;;;5114173;28;19924;-59
2022/05/01 01:17:37;;;;;;;;;;;4.40;99.90;;;;;;5096987;28;20393;-59
2022/05/01 01:20:12;;;;;;;;;;;4.30;99.90;;;;;;5114824;28;19924;-59
2022/05/01 01:22:38;;;;;;;;;;;4.30;99.90;;;;;;5095715;28;19924;-59
2022/05/01 01:25:05;;;;;;;;;;;4.30;99.90;;;;;;5096907;28;19924;-59
2022/05/01 01:27:30;;;;;;;;;;;4.30;99.90;;;;;;5095705;28;19930;-59
2022/05/01 01:32:40;;;;;;;;;;;4.20;99.90;;;;;;5114701;28;19930;-59
2022/05/01 01:35:07;;;;;;;;;;;4.20;99.90;;;;;;5114145;28;19923;-59
2022/05/01 01:37:34;;;;;;;;;;;4.10;99.90;;;;;;5115012;28;19959;-59
2022/05/01 01:40:00;;;;;;;;;;;4.10;99.90;;;;;;5114681;28;20327;-60
2022/05/01 01:42:29;;;;;;;;;;;4.10;99.90;;;;;;5095558;28;20380;-59
2022/05/01 01:44:54;;;;;;;;;;;4.10;99.90;;;;;;5114939;28;19924;-59
2022/05/01 01:47:20;;;;;;;;;;;4.10;99.90;;;;;;5114497;28;20424;-59
2022/05/01 01:49:46;;;;;;;;;;;4.20;99.90;;;;;;5113000;28;19924;-59
2022/05/01 01:52:11;;;;;;;;;;;4.10;99.90;;;;;;5096217;28;19931;-59
2022/05/01 01:54:37;;;;;;;;;;;4.10;99.90;;;;;;5114773;28;19977;-59
2022/05/01 01:57:03;;;;;;;;;;;4.10;99.90;;;;;;5113548;28;19931;-59
2022/05/01 01:59:29;;;;;;;;;;;4.00;99.90;;;;;;5095708;28;19927;-59
2022/05/01 02:01:55;;;;;;;;;;;3.90;99.90;;;;;;5114201;28;19924;-59
2022/05/01 02:04:21;;;;;;;;;;;3.80;99.90;;;;;;5113389;28;20278;-59
2022/05/01 02:06:46;;;;;;;;;;;3.60;99.90;;;;;;5114135;28;19924;-59
2022/05/01 02:09:14;;;;;;;;;;;3.50;99.90;;;;;;5114094;28;19969;-59
2022/05/01 02:11:40;;;;;;;;;;;3.40;99.90;;;;;;5113146;28;20006;-59
2022/05/01 02:14:06;;;;;;;;;;;3.20;99.90;;;;;;5113890;28;19970;-59
2022/05/01 02:16:31;;;;;;;;;;;3.20;99.90;;;;;;5113586;28;19931;-59
2022/05/01 02:18:57;;;;;;;;;;;1.90;99.90;;;;;;5095486;28;19963;-59
2022/05/01 02:21:35;;;;;;;;;;;3.20;99.90;;;;;;5104703;28;20332;-59
2022/05/01 02:24:03;;;;;;;;;;;3.20;99.90;;;;;;5095385;28;20263;-59
2022/05/01 02:26:29;;;;;;;;;;;3.20;99.90;;;;;;5095334;28;20404;-59
2022/05/01 02:28:55;;;;;;;;;;;3.20;99.90;;;;;;5113474;28;19928;-59
2022/05/01 02:31:22;;;;;;;;;;;3.20;99.90;;;;;;5095025;28;19930;-59
2022/05/01 02:33:47;;;;;;;;;;;3.30;99.90;;;;;;5113401;28;19923;-59
2022/05/01 02:36:16;;;;;;;;;;;3.40;99.90;;;;;;5113928;28;19968;-59
2022/05/01 02:38:42;;;;;;;;;;;3.40;99.90;;;;;;5095488;28;19946;-59
2022/05/01 02:41:07;;;;;;;;;;;3.40;99.90;;;;;;5074918;28;20382;-59
2022/05/01 02:43:33;;;;;;;;;;;3.60;99.90;;;;;;5110779;28;20280;-59
2022/05/01 02:45:58;;;;;;;;;;;3.50;99.90;;;;;;5094805;28;19932;-59
2022/05/01 02:48:24;;;;;;;;;;;3.50;99.90;;;;;;5113343;28;19924;-59
2022/05/01 02:50:50;;;;;;;;;;;3.50;99.90;;;;;;5112998;28;19947;-59
2022/05/01 02:53:15;;;;;;;;;;;3.40;99.90;;;;;;5112881;28;19924;-59
2022/05/01 02:55:41;;;;;;;;;;;3.40;99.90;;;;;;5095463;28;19927;-59
2022/05/01 02:58:07;;;;;;;;;;;3.40;99.90;;;;;;5113466;28;20030;-59
2022/05/01 03:00:33;;;;;;;;;;;3.50;99.90;;;;;;5112550;28;19924;-59
2022/05/01 03:02:59;;;;;;;;;;;3.40;99.90;;;;;;5095261;28;19951;-59
2022/05/01 03:05:25;;;;;;;;;;;3.40;99.90;;;;;;5113562;28;20270;-59
2022/05/01 03:07:53;;;;;;;;;;;3.40;99.90;;;;;;5094489;28;19984;-59
2022/05/01 03:10:19;;;;;;;;;;;3.30;99.90;;;;;;5112838;28;19927;-59
2022/05/01 03:12:44;;;;;;;;;;;3.30;99.90;;;;;;5113334;28;20006;-59
2022/05/01 03:15:10;;;;;;;;;;;3.20;99.90;;;;;;5112888;28;19932;-59
2022/05/01 03:23:05;;;;;;;;;;;3.20;99.90;;;;;;5113439;28;20289;-59
2022/05/01 03:25:32;;;;;;;;;;;3.20;99.90;;;;;;5112624;28;21298;-59
2022/05/01 03:27:58;;;;;;;;;;;3.30;99.90;;;;;;5095482;28;20034;-59
2022/05/01 03:30:24;;;;;;;;;;;3.30;99.90;;;;;;5098894;28;19924;-59
2022/05/01 03:32:50;;;;;;;;;;;3.20;99.90;;;;;;5116966;28;19930;-59
2022/05/01 03:35:17;;;;;;;;;;;3.20;99.90;;;;;;5116386;28;20011;-59
2022/05/01 03:37:42;;;;;;;;;;;3.20;99.90;;;;;;5117318;28;20349;-59
2022/05/01 03:40:12;;;;;;;;;;;3.20;99.90;;;;;;5117044;28;19971;-59
2022/05/01 03:42:37;;;;;;;;;;;3.10;99.90;;;;;;5116421;28;19923;-59
2022/05/01 03:45:03;;;;;;;;;;;3.10;99.90;;;;;;5116636;28;20369;-59
2022/05/01 03:47:29;;;;;;;;;;;3.10;99.90;;;;;;5116724;28;19934;-59
2022/05/01 03:49:54;;;;;;;;;;;3.00;99.90;;;;;;5115929;28;19924;-59
2022/05/01 03:52:20;;;;;;;;;;;3.10;99.90;;;;;;5116375;28;19927;-59
2022/05/01 03:54:45;;;;;;;;;;;3.00;99.90;;;;;;5116717;28;19924;-59
2022/05/01 03:57:11;;;;;;;;;;;3.00;99.90;;;;;;5116273;28;20080;-59
2022/05/01 03:59:37;;;;;;;;;;;2.90;99.90;;;;;;5116835;28;19923;-59
2022/05/01 04:02:02;;;;;;;;;;;2.90;99.90;;;;;;5115779;28;19931;-59
2022/05/01 04:04:28;;;;;;;;;;;2.80;99.90;;;;;;5098172;28;19924;-59
2022/05/01 04:06:53;;;;;;;;;;;2.70;99.90;;;;;;5116409;28;19924;-59
2022/05/01 04:09:21;;;;;;;;;;;2.60;99.90;;;;;;5115411;28;19939;-59
2022/05/01 04:11:46;;;;;;;;;;;2.50;99.90;;;;;;5116248;28;20366;-59
2022/05/01 04:14:12;;;;;;;;;;;2.40;99.90;;;;;;5116281;28;19931;-59
2022/05/01 04:16:37;;;;;;;;;;;2.40;99.90;;;;;;5115460;28;19975;-58
2022/05/01 04:19:03;;;;;;;;;;;2.30;99.90;;;;;;5115959;28;19995;-59
2022/05/01 04:21:29;;;;;;;;;;;2.30;99.90;;;;;;5116295;28;19981;-59
2022/05/01 04:23:54;;;;;;;;;;;2.40;99.90;;;;;;5115350;28;19931;-59
2022/05/01 04:26:20;;;;;;;;;;;2.40;99.90;;;;;;5116333;28;20301;-59
2022/05/01 04:31:30;;;;;;;;;;;2.40;99.90;;;;;;5115048;28;19924;-59
2022/05/01 04:33:55;;;;;;;;;;;2.50;99.90;;;;;;5115988;28;19920;-58
2022/05/01 04:36:21;;;;;;;;;;;2.50;99.90;;;;;;5116233;28;19924;-58
2022/05/01 04:38:47;;;;;;;;;;;2.50;99.90;;;;;;5113649;28;19923;-59
2022/05/01 04:41:16;;;;;;;;;;;2.50;99.90;;;;;;5115730;28;19971;-58
2022/05/01 04:43:42;;;;;;;;;;;2.50;99.90;;;;;;5115965;28;19924;-59
2022/05/01 04:46:08;;;;;;;;;;;2.60;99.90;;;;;;5114448;28;19923;-58
2022/05/01 04:48:33;;;;;;;;;;;2.60;99.90;;;;;;5115556;28;20454;-59
2022/05/01 04:51:00;;;;;;;;;;;2.60;99.90;;;;;;5115883;28;20373;-59
2022/05/01 04:53:26;;;;;;;;;;;2.70;99.90;;;;;;5114816;28;19924;-59
2022/05/01 04:55:53;;;;;;;;;;;2.70;99.90;;;;;;5097190;28;19931;-59
2022/05/01 04:58:20;;;;;;;;;;;2.80;99.90;;;;;;5115129;28;19930;-59
2022/05/01 05:00:46;;;;;;;;;;;2.80;99.90;;;;;;5097030;28;19924;-59
2022/05/01 05:03:12;;;;;;;;;;;2.90;99.90;;;;;;5114940;28;19924;-59
2022/05/01 05:05:38;;;;;;;;;;;2.90;99.90;;;;;;5096673;28;20578;-59
2022/05/01 05:10:49;;;;;;;;;;;2.90;99.90;;;;;;5092400;28;20431;-59
2022/05/01 05:13:15;;;;;;;;;;;2.90;99.90;;;;;;5114068;28;19924;-59
2022/05/01 05:15:41;;;;;;;;;;;3.00;99.90;;;;;;5096570;28;20271;-59
2022/05/01 05:18:07;;;;;;;;;;;3.10;99.90;;;;;;5115225;28;19928;-59
2022/05/01 05:20:32;;;;;;;;;;;3.20;99.90;;;;;;5114472;28;20026;-59
2022/05/01 05:22:58;;;;;;;;;;;3.30;99.90;;;;;;5114674;28;19919;-59
2022/05/01 05:25:24;;;;;;;;;;;3.40;99.90;;;;;;5096791;28;20297;-59
2022/05/01 05:27:49;;;;;;;;;;;3.50;99.90;;;;;;5114534;28;19924;-59
2022/05/01 05:30:15;;;;;;;;;;;3.80;99.90;;;;;;5114199;28;20286;-59
2022/05/01 05:32:41;;;;;;;;;;;4.00;99.90;;;;;;5096568;28;20305;-59
2022/05/01 05:35:06;;;;;;;;;;;4.10;99.90;;;;;;5114220;28;19923;-58
2022/05/01 05:37:32;;;;;;;;;;;4.30;99.90;;;;;;5114727;28;19931;-59
2022/05/01 05:39:58;;;;;;;;;;;4.50;99.90;;;;;;5114571;28;19923;-59
2022/05/01 05:42:24;;;;;;;;;;;4.70;99.90;;;;;;5114082;28;20377;-59
2022/05/01 05:44:50;;;;;;;;;;;4.90;99.90;;;;;;5114353;28;19939;-59
2022/05/01 05:47:15;;;;;;;;;;;5.20;99.90;;;;;;5114631;28;19924;-59
2022/05/01 05:49:41;;;;;;;;;;;5.50;99.90;;;;;;5113660;28;19930;-59
2022/05/01 05:52:07;;;;;;;;;;;5.70;99.90;;;;;;5114181;28;20010;-59
2022/05/01 05:54:33;;;;;;;;;;;5.90;99.90;;;;;;5114380;28;19963;-59
2022/05/01 05:56:58;;;;;;;;;;;6.60;99.90;;;;;;5113919;28;19946;-59
2022/05/01 05:59:24;;;;;;;;;;;6.30;99.90;;;;;;5114159;28;19927;-59
2022/05/01 06:01:50;;;;;;;;;;;6.50;99.90;;;;;;5113477;28;19931;-60
2022/05/01 06:04:15;;;;;;;;;;;6.70;99.90;;;;;;5114644;28;19927;-59
2022/05/01 06:06:41;;;;;;;;;;;6.80;99.90;;;;;;5095832;28;20407;-59
2022/05/01 06:09:08;;;;;;;;;;;7.00;99.90;;;;;;5111707;28;19924;-59
2022/05/01 06:11:35;;;;;;;;;;;7.10;99.90;;;;;;5114139;28;19923;-59
2022/05/01 06:14:02;;;;;;;;;;;7.10;99.90;;;;;;5113569;28;19923;-59
2022/05/01 06:16:28;;;;;;;;;;;7.10;99.90;;;;;;5094892;28;20369;-59
2022/05/01 06:18:53;;;;;;;;;;;7.10;99.90;;;;;;5114318;28;20304;-59
2022/05/01 06:21:19;;;;;;;;;;;7.20;99.90;;;;;;5098178;28;20022;-59
2022/05/01 06:23:48;;;;;;;;;;;7.30;99.90;;;;;;5102381;28;19924;-59
2022/05/01 06:26:14;;;;;;;;;;;7.50;99.90;;;;;;5113810;28;20364;-59
2022/05/01 06:28:39;;;;;;;;;;;7.60;99.90;;;;;;5113942;28;19928;-59
2022/05/01 06:31:06;;;;;;;;;;;7.70;99.90;;;;;;5112969;28;19930;-59
2022/05/01 06:33:34;;;;;;;;;;;7.90;99.90;;;;;;5113798;28;20358;-59
2022/05/01 06:35:59;;;;;;;;;;;8.10;99.90;;;;;;5095567;28;19928;-59
2022/05/01 06:38:25;;;;;;;;;;;8.20;99.90;;;;;;5112831;28;19976;-59
2022/05/01 06:40:51;;;;;;;;;;;8.40;99.90;;;;;;5113499;28;19923;-59
2022/05/01 06:43:17;;;;;;;;;;;8.50;99.90;;;;;;5078624;28;19932;-59
2022/05/01 06:45:43;;;;;;;;;;;8.60;99.90;;;;;;5112848;28;19924;-60
2022/05/01 06:48:10;;;;;;;;;;;8.70;99.90;;;;;;5095686;28;19931;-60
2022/05/01 06:50:36;;;;;;;;;;;8.80;99.90;;;;;;5113576;28;19976;-60
2022/05/01 06:53:02;;;;;;;;;;;8.90;99.90;;;;;;5112635;28;19924;-59
2022/05/01 06:55:28;;;;;;;;;;;9.00;99.90;;;;;;5095596;28;19954;-60
2022/05/01 06:57:54;;;;;;;;;;;9.10;99.90;;;;;;5113249;28;19924;-60
2022/05/01 07:00:19;;;;;;;;;;;9.20;99.90;;;;;;5113210;28;20381;-59
2022/05/01 07:02:46;;;;;;;;;;;9.30;99.90;;;;;;5115059;28;19931;-60
2022/05/01 07:05:12;;;;;;;;;;;9.30;99.90;;;;;;5116455;28;20344;-59
2022/05/01 07:07:37;;;;;;;;;;;9.40;99.90;;;;;;5097431;28;19969;-59
2022/05/01 07:10:03;;;;;;;;;;;9.50;99.90;;;;;;5116498;28;20019;-59
2022/05/01 07:12:29;;;;;;;;;;;9.60;99.90;;;;;;5116437;28;19932;-60
2022/05/01 07:14:55;;;;;;;;;;;9.70;99.90;;;;;;5117481;28;19977;-60
2022/05/01 07:17:20;;;;;;;;;;;9.70;99.90;;;;;;5117331;28;19924;-60
2022/05/01 07:19:46;;;;;;;;;;;9.70;99.90;;;;;;5116780;28;20381;-60
2022/05/01 07:22:12;;;;;;;;;;;9.90;99.90;;;;;;5098624;28;19930;-59
2022/05/01 07:24:38;;;;;;;;;;;10.00;99.90;;;;;;5117206;28;19924;-60
2022/05/01 07:27:04;;;;;;;;;;;10.10;99.90;;;;;;5098573;28;19980;-60
2022/05/01 07:29:30;;;;;;;;;;;10.30;99.90;;;;;;5116719;28;19934;-60
2022/05/01 07:31:56;;;;;;;;;;;10.50;99.90;;;;;;5117341;28;20390;-59
2022/05/01 07:34:21;;;;;;;;;;;10.60;99.90;;;;;;5116252;28;19948;-59
2022/05/01 07:36:47;;;;;;;;;;;10.80;99.90;;;;;;5116969;28;19919;-59
2022/05/01 07:39:12;;;;;;;;;;;10.80;99.90;;;;;;5116826;28;20302;-60
2022/05/01 07:41:38;;;;;;;;;;;10.90;99.90;;;;;;5097601;28;20366;-60
2022/05/01 07:44:04;;;;;;;;;;;10.80;99.90;;;;;;5116346;28;19931;-60
2022/05/01 07:46:29;;;;;;;;;;;10.70;99.90;;;;;;5116703;28;19934;-60
2022/05/01 07:48:55;;;;;;;;;;;10.50;99.90;;;;;;5115841;28;19927;-60
2022/05/01 07:51:21;;;;;;;;;;;10.40;99.90;;;;;;5116094;28;19931;-60
2022/05/01 07:53:46;;;;;;;;;;;10.30;99.90;;;;;;5116670;28;19924;-60
2022/05/01 07:56:12;;;;;;;;;;;10.40;99.90;;;;;;5113035;28;21690;-60
2022/05/01 07:58:38;;;;;;;;;;;10.70;99.90;;;;;;5115471;28;19975;-60
2022/05/01 08:01:04;;;;;;;;;;;11.20;99.90;;;;;;5116090;28;19924;-59
2022/05/01 08:06:14;;;;;;;;;;;;;;;;;;5108714;28;19962;-60
2022/05/01 08:08:40;;;;;;;;;;;12.80;99.90;;;;;;5115604;28;20382;-60
2022/05/01 08:11:07;;;;;;;;;;;13.00;99.90;;;;;;5115725;28;19923;-60
2022/05/01 08:13:33;;;;;;;;;;;12.90;99.90;;;;;;5115204;28;19923;-60
2022/05/01 08:15:59;;;;;;;;;;;12.70;99.90;;;;;;5115579;28;19934;-60
2022/05/01 08:21:09;;;;;;;;;;;12.20;99.90;;;;;;5097516;28;20010;-59
2022/05/01 08:23:36;;;;;;;;;;;12.00;99.90;;;;;;5115172;28;19920;-60
2022/05/01 08:26:03;;;;;;;;;;;11.80;99.90;;;;;;5098066;28;19924;-60
2022/05/01 08:28:30;;;;;;;;;;;11.80;99.90;;;;;;5115524;28;20024;-60
2022/05/01 08:30:56;;;;;;;;;;;11.70;99.90;;;;;;5102751;28;20324;-59
2022/05/01 08:33:21;;;;;;;;;;;11.90;99.90;;;;;;5094056;28;19973;-60
2022/05/01 08:35:47;;;;;;;;;;;12.30;99.90;;;;;;5098894;28;19927;-59
2022/05/01 08:38:13;;;;;;;;;;;13.00;99.90;;;;;;5115279;28;20366;-59
2022/05/01 08:40:39;;;;;;;;;;;13.30;99.90;;;;;;5115493;28;19931;-59
2022/05/01 08:43:05;;;;;;;;;;;13.70;99.90;;;;;;5115483;28;20366;-59
2022/05/01 08:45:41;;;;;;;;;;;14.10;99.90;;;;;;5114437;28;19953;-59
2022/05/01 08:48:09;;;;;;;;;;;14.30;99.90;;;;;;5112097;28;20437;-60
2022/05/01 08:50:35;;;;;;;;;;;14.70;99.90;;;;;;5113436;28;19928;-61
2022/05/01 08:53:02;;;;;;;;;;;15.00;99.90;;;;;;5115043;28;19924;-59
2022/05/01 08:55:29;;;;;;;;;;;15.10;99.90;;;;;;5095576;28;19924;-60
2022/05/01 08:57:56;;;;;;;;;;;15.10;99.80;;;;;;5101950;28;19928;-60
2022/05/01 09:00:21;;;;;;;;;;;14.90;95.30;;;;;;5100356;28;20011;-60
2022/05/01 09:02:47;;;;;;;;;;;14.40;95.80;;;;;;5083416;28;19978;-60
2022/05/01 09:05:13;;;;;;;;;;;14.30;97.90;;;;;;5110760;28;19930;-60
2022/05/01 09:07:39;;;;;;;;;;;14.40;99.90;;;;;;5106301;28;19923;-60
2022/05/01 09:10:08;;;;;;;;;;;14.10;99.30;;;;;;5114908;28;19972;-60
2022/05/01 09:12:49;;;;;;;;;;;13.70;99.90;;;;;;5112127;28;19924;-60
2022/05/01 09:15:28;;;;;;;;;;;13.40;99.90;;;;;;5102128;28;19973;-60
2022/05/01 09:18:00;;;;;;;;;;;13.20;99.90;;;;;;5094896;28;19982;-60
2022/05/01 09:20:25;;;;;;;;;;;13.10;99.90;;;;;;5102064;28;19928;-61
2022/05/01 09:22:52;;;;;;;;;;;13.10;99.90;;;;;;5112695;28;19927;-60
2022/05/01 09:25:18;;;;;;;;;;;13.10;99.90;;;;;;5098583;28;19980;-60
2022/05/01 09:27:44;;;;;;;;;;;13.20;99.90;;;;;;5113624;28;19935;-60
2022/05/01 09:30:11;;;;;;;;;;;13.40;99.90;;;;;;5114158;28;19923;-60
2022/05/01 09:32:38;;;;;;;;;;;13.80;99.90;;;;;;5113318;28;19923;-60
2022/05/01 09:35:05;;;;;;;;;;;14.20;99.90;;;;;;5095475;28;19927;-61
2022/05/01 09:37:31;;;;;;;;;;;14.50;97.90;;;;;;5113674;28;20018;-60
2022/05/01 09:39:57;;;;;;;;;;;14.80;96.00;;;;;;5113413;28;20621;-60
2022/05/01 09:42:25;;;;;;;;;;;15.00;99.60;;;;;;5092277;28;19924;-60
2022/05/01 09:45:02;;;;;;;;;;;15.10;99.20;;;;;;5114304;28;19924;-60
2022/05/01 09:47:35;;;;;;;;;;;15.20;99.00;;;;;;5113187;28;19928;-60
2022/05/01 09:50:02;;;;;;;;;;;15.50;98.40;;;;;;5113171;28;19974;-60
2022/05/01 09:52:47;;;;;;;;;;;16.40;99.90;;;;;;5114196;28;19963;-60
2022/05/01 09:55:13;;;;;;;;;;;;;;;;;;5112752;28;20285;-60
2022/05/01 09:57:39;;;;;;;;;;;16.50;97.50;;;;;;5113903;28;20040;-60
2022/05/01 10:00:05;;;;;;;;;;;16.80;98.00;;;;;;5113618;28;20395;-60
2022/05/01 10:02:37;;;;;;;;;;;17.00;96.00;;;;;;5095270;28;19923;-60
2022/05/01 10:05:06;;;;;;;;;;;16.80;90.80;;;;;;5113289;28;19930;-60
2022/05/01 10:07:36;;;;;;;;;;;16.50;80.60;;;;;;5095541;28;20362;-61
2022/05/01 10:10:05;;;;;;;;;;;16.30;86.70;;;;;;5093667;28;19924;-61
2022/05/01 10:12:35;;;;;;;;;;;16.10;80.70;;;;;;5093320;28;19931;-61
2022/05/01 10:15:02;;;;;;;;;;;16.10;83.90;;;;;;5112020;28;19926;-61
2022/05/01 10:17:28;;;;;;;;;;;16.30;85.50;;;;;;5094778;28;19974;-60
2022/05/01 10:19:54;;;;;;;;;;;16.50;87.80;;;;;;5113628;28;19935;-61
2022/05/01 10:22:20;;;;;;;;;;;16.60;71.90;;;;;;5106495;28;19981;-60
2022/05/01 10:24:46;;;;;;;;;;;16.80;72.80;;;;;;5093514;28;20289;-61
2022/05/01 10:27:19;;;;;;;;;;;16.90;73.90;;;;;;5113498;28;19924;-61
2022/05/01 10:32:51;;;;;;;;;;;17.80;79.60;;;;;;5113711;28;19924;-61
2022/05/01 10:35:25;;;;;;;;;;;18.10;81.30;;;;;;5113494;28;20011;-61
2022/05/01 10:38:06;;;;;;;;;;;17.90;82.10;;;;;;5112694;28;20331;-61
2022/05/01 10:40:38;;;;;;;;;;;17.40;83.50;;;;;;5111100;28;19974;-61
2022/05/01 10:43:21;;;;;;;;;;;16.90;85.50;;;;;;5094867;28;19984;-60
2022/05/01 10:45:47;;;;;;;;;;;16.50;89.80;;;;;;5114302;28;19924;-61
2022/05/01 10:48:15;;;;;;;;;;;16.20;92.00;;;;;;5113041;28;19923;-61
2022/05/01 10:50:41;;;;;;;;;;;16.00;93.00;;;;;;5112661;28;20368;-61
2022/05/01 10:53:08;;;;;;;;;;;15.90;92.70;;;;;;5095676;28;19963;-61
2022/05/01 10:55:51;;;;;;;;;;;15.80;92.50;;;;;;5094932;28;20293;-61
2022/05/01 10:58:19;;;;;;;;;;;15.80;93.70;;;;;;5108330;28;19927;-61
2022/05/01 11:00:46;;;;;;;;;;;15.70;92.90;;;;;;5113420;28;20014;-61
2022/05/01 11:03:22;;;;;;;;;;;15.70;93.80;;;;;;5095260;28;19924;-61
2022/05/01 11:05:52;;;;;;;;;;;15.70;91.80;;;;;;5106459;28;20289;-61
2022/05/01 11:08:18;;;;;;;;;;;15.70;93.70;;;;;;5093440;28;20279;-61
2022/05/01 11:10:44;;;;;;;;;;;15.70;93.70;;;;;;5074584;28;19924;-61
2022/05/01 11:13:16;;;;;;;;;;;15.80;94.00;;;;;;5094225;28;19928;-61
2022/05/01 11:15:44;;;;;;;;;;;15.90;94.70;;;;;;5109268;28;20288;-61
2022/05/01 11:18:11;;;;;;;;;;;16.40;94.40;;;;;;5107700;28;19985;-61
2022/05/01 11:20:38;;;;;;;;;;;16.80;92.40;;;;;;5103883;28;19930;-61
2022/05/01 11:23:22;;;;;;;;;;;16.80;90.20;;;;;;5113347;28;19924;-61
2022/05/01 11:25:48;;;;;;;;;;;16.80;88.40;;;;;;5111541;28;20406;-61
2022/05/01 11:28:34;;;;;;;;;;;16.80;90.90;;;;;;5080495;28;19964;-61
2022/05/01 11:30:59;;;;;;;;;;;16.60;91.40;;;;;;5092298;28;20369;-61
2022/05/01 11:33:25;;;;;;;;;;;16.40;77.10;;;;;;5100305;28;19960;-61
2022/05/01 11:35:54;;;;;;;;;;;16.30;77.10;;;;;;5112656;28;19927;-61
2022/05/01 11:38:22;;;;;;;;;;;16.20;86.70;;;;;;5113086;28;19928;-61
2022/05/01 11:40:52;;;;;;;;;;;16.50;86.60;;;;;;5111659;28;19923;-61
2022/05/01 11:43:19;;;;;;;;;;;16.60;85.40;;;;;;5094357;28;19927;-61
2022/05/01 11:45:46;;;;;;;;;;;16.70;89.00;;;;;;5113239;28;20389;-61
2022/05/01 11:48:12;;;;;;;;;;;16.60;90.30;;;;;;5112499;28;19969;-61
2022/05/01 11:50:40;;;;;;;;;;;16.40;91.00;;;;;;5116461;28;19924;-61
2022/05/01 11:53:14;;;;;;;;;;;16.00;92.00;;;;;;5098935;28;19931;-61
2022/05/01 12:04:00;;;;;;;;;;;15.80;95.80;;;;;;5115899;28;19968;-61
2022/05/01 12:06:26;;;;;;;;;;;15.90;96.50;;;;;;5116831;28;20355;-61
2022/05/01 12:08:52;;;;;;;;;;;15.90;96.20;;;;;;5112171;28;19923;-61
2022/05/01 12:11:28;;;;;;;;;;;16.00;95.40;;;;;;5104614;28;19928;-61
2022/05/01 12:14:04;;;;;;;;;;;16.60;94.20;;;;;;5115244;28;19931;-61
2022/05/01 12:16:30;;;;;;;;;;;17.20;92.90;;;;;;5115344;28;19934;-61
2022/05/01 12:18:56;;;;;;;;;;;17.70;90.70;;;;;;5115431;28;20010;-61
2022/05/01 12:21:28;;;;;;;;;;;17.70;90.80;;;;;;5115884;28;20378;-61
2022/05/01 12:23:54;;;;;;;;;;;17.30;90.60;;;;;;5096093;28;19925;-61
2022/05/01 12:26:20;;;;;;;;;;;17.00;91.30;;;;;;5101994;28;20324;-61
2022/05/01 12:28:45;;;;;;;;;;;16.60;92.50;;;;;;5114882;28;19931;-61
2022/05/01 12:31:11;;;;;;;;;;;16.40;92.80;;;;;;5115401;28;19924;-61
2022/05/01 12:33:37;;;;;;;;;;;16.30;92.60;;;;;;5115881;28;20362;-61
2022/05/01 12:36:03;;;;;;;;;;;16.20;93.70;;;;;;5114953;28;20007;-61
2022/05/01 12:38:29;;;;;;;;;;;16.50;93.90;;;;;;5115982;28;19967;-61
2022/05/01 12:43:56;;;;;;;;;;;17.60;91.40;;;;;;5114681;28;20492;-61
2022/05/01 12:46:24;;;;;;;;;;;18.10;88.00;;;;;;5115664;28;19931;-61
2022/05/01 12:48:50;;;;;;;;;;;18.50;86.10;;;;;;5114778;28;19928;-61
2022/05/01 12:51:16;;;;;;;;;;;18.70;80.60;;;;;;5114903;28;20486;-61
2022/05/01 12:53:42;;;;;;;;;;;19.10;81.50;;;;;;5115052;28;19924;-61
2022/05/01 12:56:16;;;;;;;;;;;19.10;77.30;;;;;;5115352;28;19928;-61
2022/05/01 12:58:42;;;;;;;;;;;19.10;74.80;;;;;;5086849;28;19947;-61
2022/05/01 13:01:20;;;;;;;;;;;19.40;75.00;;;;;;5103276;28;20374;-61
2022/05/01 13:03:46;;;;;;;;;;;19.30;73.40;;;;;;5094296;28;19924;-61
2022/05/01 13:06:12;;;;;;;;;;;19.30;73.70;;;;;;5096409;28;20332;-61
2022/05/01 13:08:39;;;;;;;;;;;19.00;74.60;;;;;;5115116;28;20444;-61
2022/05/01 13:11:11;;;;;;;;;;;19.00;74.30;;;;;;5113872;28;19930;-61
2022/05/01 13:13:46;;;;;;;;;;;18.70;74.30;;;;;;5114910;28;20438;-62
2022/05/01 13:16:13;;;;;;;;;;;18.80;75.10;;;;;;5114287;28;20018;-62
2022/05/01 13:18:39;;;;;;;;;;;18.70;75.60;;;;;;5113410;28;19927;-61
2022/05/01 13:21:05;;;;;;;;;;;18.70;75.30;;;;;;5096242;28;19924;-62
2022/05/01 13:23:31;;;;;;;;;;;18.80;74.80;;;;;;5114090;28;19939;-61
2022/05/01 13:25:58;;;;;;;;;;;18.80;75.10;;;;;;5112804;28;20318;-62
2022/05/01 13:28:24;;;;;;;;;;;18.90;74.90;;;;;;5096156;28;19923;-62
2022/05/01 13:30:49;;;;;;;;;;;19.00;74.30;;;;;;5114333;28;20018;-62
2022/05/01 13:33:15;;;;;;;;;;;18.90;73.90;;;;;;5113815;28;19960;-62
2022/05/01 13:35:41;;;;;;;;;;;18.80;72.30;;;;;;5114590;28;19923;-62
2022/05/01 13:38:06;;;;;;;;;;;18.70;76.00;;;;;;5114161;28;19927;-62
2022/05/01 13:46:01;;;;;;;;;;;18.30;76.40;;;;;;5113186;28;19924;-62
2022/05/01 13:48:27;;;;;;;;;;;18.30;78.00;;;;;;5096247;28;19930;-62
2022/05/01 13:50:53;;;;;;;;;;;18.20;79.80;;;;;;5114574;28;19971;-62
2022/05/01 13:53:18;;;;;;;;;;;18.20;78.10;;;;;;5113646;28;20116;-62
2022/05/01 13:55:44;;;;;;;;;;;18.30;76.90;;;;;;5114501;28;19924;-62
2022/05/01 13:58:09;;;;;;;;;;;18.60;76.40;;;;;;5114531;28;19981;-62
2022/05/01 14:00:35;;;;;;;;;;;18.90;76.20;;;;;;5113509;28;19959;-62
2022/05/01 14:03:02;;;;;;;;;;;19.30;76.30;;;;;;5096137;28;20374;-62
2022/05/01 14:05:27;;;;;;;;;;;19.80;74.10;;;;;;5114464;28;20014;-62
2022/05/01 14:07:53;;;;;;;;;;;20.30;71.90;;;;;;5113606;28;20364;-62
2022/05/01 14:10:19;;;;;;;;;;;20.70;67.20;;;;;;5114010;28;19923;-62
2022/05/01 14:12:46;;;;;;;;;;;21.20;67.70;;;;;;5113604;28;19931;-62
2022/05/01 14:15:12;;;;;;;;;;;21.30;65.70;;;;;;5113252;28;20010;-62
2022/05/01 14:17:38;;;;;;;;;;;21.50;63.40;;;;;;5114203;28;20388;-62
2022/05/01 14:20:04;;;;;;;;;;;21.70;60.70;;;;;;5114002;28;19923;-62
2022/05/01 14:22:31;;;;;;;;;;;22.00;59.70;;;;;;5113189;28;19934;-62
2022/05/01 14:24:58;;;;;;;;;;;22.40;60.10;;;;;;5112466;28;20564;-63
2022/05/01 14:27:23;;;;;;;;;;;22.60;57.80;;;;;;5113927;28;19970;-62
2022/05/01 14:29:50;;;;;;;;;;;22.50;58.40;;;;;;5093669;28;19963;-62
2022/05/01 14:32:17;;;;;;;;;;;22.40;56.10;;;;;;5113201;28;20366;-62
2022/05/01 14:34:49;;;;;;;;;;;22.20;57.60;;;;;;5114014;28;20015;-62
2022/05/01 14:37:21;;;;;;;;;;;22.10;57.40;;;;;;5094693;28;19924;-62
2022/05/01 14:39:47;;;;;;;;;;;22.00;57.70;;;;;;5112809;28;21184;-62
2022/05/01 14:42:15;;;;;;;;;;;21.40;56.90;;;;;;5112596;28;20002;-62
2022/05/01 14:44:46;;;;;;;;;;;21.50;58.60;;;;;;5114069;28;19930;-62
2022/05/01 14:47:16;;;;;;;;;;;21.70;58.70;;;;;;5113081;28;19923;-61
2022/05/01 14:49:42;;;;;;;;;;;22.00;56.60;;;;;;5111942;28;20061;-62
2022/05/01 14:52:10;;;;;;;;;;;22.20;56.30;;;;;;5113903;28;19985;-62
2022/05/01 14:54:37;;;;;;;;;;;22.30;56.40;;;;;;5113315;28;19947;-62
2022/05/01 14:57:09;;;;;;;;;;;22.30;56.20;;;;;;5112742;28;20423;-62
2022/05/01 15:07:55;;;;;;;;;;;21.80;56.00;;;;;;5111842;28;19976;-62
2022/05/01 15:10:21;;;;;;;;;;;21.70;56.80;;;;;;5112206;28;19923;-62
2022/05/01 15:12:49;;;;;;;;;;;21.40;56.40;;;;;;5113186;28;19924;-62
2022/05/01 15:15:15;;;;;;;;;;;21.30;56.90;;;;;;5112849;28;19924;-62
2022/05/01 15:17:41;;;;;;;;;;;21.50;56.70;;;;;;5112493;28;19924;-62